Map

Track Data

SID SEASON NUMBER BASIN SUBBASIN NAME ISO_TIME NATURE LAT LON WMO_WIND WMO_PRES WMO_AGENCY TRACK_TYPE DIST2LAND LANDFALL IFLAG USA_AGENCY USA_ATCF_ID USA_LAT USA_LON USA_RECORD USA_STATUS USA_WIND USA_PRES USA_SSHS USA_R34_NE USA_R34_SE USA_R34_SW USA_R34_NW USA_R50_NE USA_R50_SE USA_R50_SW USA_R50_NW USA_R64_NE USA_R64_SE USA_R64_SW USA_R64_NW USA_POCI USA_ROCI USA_RMW USA_EYE TOKYO_LAT TOKYO_LON TOKYO_GRADE TOKYO_WIND TOKYO_PRES TOKYO_R50_DIR TOKYO_R50_LONG TOKYO_R50_SHORT TOKYO_R30_DIR TOKYO_R30_LONG TOKYO_R30_SHORT TOKYO_LAND CMA_LAT CMA_LON CMA_CAT CMA_WIND CMA_PRES HKO_LAT HKO_LON HKO_CAT HKO_WIND HKO_PRES NEWDELHI_LAT NEWDELHI_LON NEWDELHI_GRADE NEWDELHI_WIND NEWDELHI_PRES NEWDELHI_CI NEWDELHI_DP NEWDELHI_POCI REUNION_LAT REUNION_LON REUNION_TYPE REUNION_WIND REUNION_PRES REUNION_TNUM REUNION_CI REUNION_RMW REUNION_R34_NE REUNION_R34_SE REUNION_R34_SW REUNION_R34_NW REUNION_R50_NE REUNION_R50_SE REUNION_R50_SW REUNION_R50_NW REUNION_R64_NE REUNION_R64_SE REUNION_R64_SW REUNION_R64_NW BOM_LAT BOM_LON BOM_TYPE BOM_WIND BOM_PRES BOM_TNUM BOM_CI BOM_RMW BOM_R34_NE BOM_R34_SE BOM_R34_SW BOM_R34_NW BOM_R50_NE BOM_R50_SE BOM_R50_SW BOM_R50_NW BOM_R64_NE BOM_R64_SE BOM_R64_SW BOM_R64_NW BOM_ROCI BOM_POCI BOM_EYE BOM_POS_METHOD BOM_PRES_METHOD NADI_LAT NADI_LON NADI_CAT NADI_WIND NADI_PRES WELLINGTON_LAT WELLINGTON_LON WELLINGTON_WIND WELLINGTON_PRES DS824_LAT DS824_LON DS824_STAGE DS824_WIND DS824_PRES TD9636_LAT TD9636_LON TD9636_STAGE TD9636_WIND TD9636_PRES TD9635_LAT TD9635_LON TD9635_WIND TD9635_PRES TD9635_ROCI NEUMANN_LAT NEUMANN_LON NEUMANN_CLASS NEUMANN_WIND NEUMANN_PRES MLC_LAT MLC_LON MLC_CLASS MLC_WIND MLC_PRES USA_GUST BOM_GUST BOM_GUST_PER REUNION_GUST REUNION_GUST_PER USA_SEAHGT USA_SEARAD_NE USA_SEARAD_SE USA_SEARAD_SW USA_SEARAD_NW STORM_SPEED STORM_DIR
1968096S10079 1968 25 SI MM NOREEN 1968-04-05 06:00:00 TS -10.3800 78.6800 reunion main 1838 1838 O____O___OO_O_ jtwc_sh SH331968 -9.50000 77.8000 -1 -11.7000 80.0000 3 9.90000 -9.50000 77.8000 TC 25 -9.50000 77.8000 7 -11.7000 80.0000 TC 35 5 234
1968096S10079 1968 25 SI MM NOREEN 1968-04-05 09:00:00 TS -10.5132 78.4906 main 1852 1852 P____P___PP_P_ SH331968 -9.70250 77.6625 -1 -11.7350 79.7500 3 -9.70250 77.6625 TC 25 -9.69068 77.6282 7 -11.7350 79.7500 TC 35 5 234
1968096S10079 1968 25 SI MM NOREEN 1968-04-05 12:00:00 TS -10.6570 78.2910 reunion main 1877 1877 O____O___OP_O_ jtwc_sh SH331968 -9.90000 77.5000 -1 -11.8000 79.5000 3 9.90000 -9.90000 77.5000 TC 25 -9.88505 77.4551 7 -11.8000 79.5000 TC 35 5 233
1968096S10079 1968 25 SI MM NOREEN 1968-04-05 15:00:00 TS -10.8174 78.0759 main 1891 1891 P____P___PP_P_ SH331968 -10.0925 77.3000 -1 -11.9075 79.2500 3 -10.0925 77.3000 TC 25 -10.0869 77.2794 7 -11.9075 79.2500 TC 37 5 233
1968096S10079 1968 25 SI MM NOREEN 1968-04-05 18:00:00 TS -10.9800 77.8600 reunion main 1917 1917 O____O___OO_O_ jtwc_sh SH331968 -10.3000 77.1000 -1 -12.0000 79.0000 99 9.90000 -10.3000 77.1000 TC 25 -10.3000 77.1000 1 -12.0000 79.0000 TC 40 5 233
1968096S10079 1968 25 SI MM NOREEN 1968-04-05 21:00:00 TS -11.1252 77.6663 main 1931 1931 P____P___PP_P_ SH331968 -10.5500 76.9500 -1 -12.0000 78.7574 99 -10.5500 76.9500 TC 25 -10.5259 76.9169 1 -12.0000 78.7574 TC 40 5 233
1968096S10079 1968 25 SI MM NOREEN 1968-04-06 00:00:00 TS -11.2715 77.4670 reunion main 1957 1957 O____O___OP_O_ jtwc_sh SH331968 -10.8000 76.8000 -1 -12.0000 78.5000 99 9.90000 -10.8000 76.8000 TC 25 -10.7575 76.7350 1 -12.0000 78.5000 TC 40 5 234
1968096S10079 1968 25 SI MM NOREEN 1968-04-06 03:00:00 TS -11.4371 77.2321 main 1974 1974 P____P___PP_P_ SH331968 -11.0150 76.6000 -1 -12.0850 78.2000 99 -11.0150 76.6000 TC 25 -10.9853 76.5607 1 -12.0850 78.2000 TC 42 6 234
1968096S10079 1968 25 SI MM NOREEN 1968-04-06 06:00:00 TS -11.6000 77.0000 reunion main 2000 2000 O____O___OO_O_ jtwc_sh SH331968 -11.2000 76.4000 -1 -12.2000 77.9000 3 9.90000 -11.2000 76.4000 TC 25 -11.2000 76.4000 1 -12.2000 77.9000 TC 45 5 235
1968096S10079 1968 25 SI MM NOREEN 1968-04-06 09:00:00 TS -11.7379 76.7985 main 2016 2016 P____P___PP_P_ SH331968 -11.3500 76.2350 -1 -12.3000 77.6350 3 -11.3500 76.2350 TC 25 -11.3893 76.2524 1 -12.3000 77.6350 TC 50 5 234
1968096S10079 1968 25 SI MM NOREEN 1968-04-06 12:00:00 TS -11.8730 76.6240 reunion main 2042 2042 O____O___OP_O_ jtwc_sh SH331968 -11.5000 76.1000 -1 -12.4000 77.4000 99 9.90000 -11.5000 76.1000 TC 25 -11.5650 76.1199 1 -12.4000 77.4000 TC 55 4 228
1968096S10079 1968 25 SI MM NOREEN 1968-04-06 15:00:00 TS -12.0266 76.4745 main 2056 2056 P____P___PP_P_ SH331968 -11.7000 75.9850 -1 -12.4999 77.2000 99 -11.7000 75.9850 TC 25 -11.7331 76.0024 1 -12.4999 77.2000 TC 57 4 222
1968096S10079 1968 25 SI MM NOREEN 1968-04-06 18:00:00 TS -12.1800 76.3400 reunion main 2083 2083 O____O___OO_O_ jtwc_sh SH331968 -11.9000 75.9000 -1 -12.6000 77.0000 99 9.90000 -11.9000 75.9000 TC 25 -11.9000 75.9000 1 -12.6000 77.0000 TC 60 4 222
1968096S10079 1968 25 SI MM NOREEN 1968-04-06 21:00:00 TS -12.3109 76.2091 main 2096 2096 P____P___PP_P_ SH331968 -12.0500 75.8500 -1 -12.7000 76.7575 99 -12.0500 75.8500 TC 25 -12.0546 75.8307 1 -12.7000 76.7575 TC 60 4 225
1968096S10079 1968 25 SI MM NOREEN 1968-04-07 00:00:00 TS -12.4425 76.0744 reunion main 2109 2109 O____O___OP_O_ jtwc_sh SH331968 -12.2000 75.8000 -1 -12.8000 76.5000 99 9.90000 -12.2000 75.8000 TC 25 -12.2124 75.7721 1 -12.8000 76.5000 TC 60 4 225
1968096S10079 1968 25 SI MM NOREEN 1968-04-07 03:00:00 TS -12.5888 75.9295 main 2112 2097 P____P___PP_P_ SH331968 -12.3775 75.7224 -1 -12.9000 76.2500 99 -12.3775 75.7224 TC 25 -12.3890 75.7025 1 -12.9000 76.2500 TC 62 4 224
1968096S10079 1968 25 SI MM NOREEN 1968-04-07 06:00:00 TS -12.7600 75.7600 reunion main 2092 2063 O____O___OO_O_ jtwc_sh SH331968 -12.6000 75.6000 -1 -13.0000 76.0000 4 9.90000 -12.6000 75.6000 TC 25 -12.6000 75.6000 1 -13.0000 76.0000 TC 65 5 224
1968096S10079 1968 25 SI MM NOREEN 1968-04-07 09:00:00 TS -12.9654 75.5562 main 2063 2024 P____P___PP_P_ SH331968 -12.8850 75.4150 -1 -13.0925 75.7574 4 -12.8850 75.4150 TC 25 -12.8722 75.4361 1 -13.0925 75.7574 TC 67 6 224
1968096S10079 1968 25 SI MM NOREEN 1968-04-07 12:00:00 TS -13.1955 75.3276 reunion main 2024 1995 O____O___OP_O_ jtwc_sh SH331968 -13.2000 75.2000 -1 -13.2000 75.5000 99 9.90000 -13.2000 75.2000 TC 25 -13.1776 75.2377 1 -13.2000 75.5000 TC 70 7 224
1968096S10079 1968 25 SI MM NOREEN 1968-04-07 15:00:00 TS -13.4358 75.0871 main 1995 1961 P____P___PP_P_ SH331968 -13.5075 75.0000 -1 -13.3350 75.2075 99 -13.5075 75.0000 TC 25 -13.4941 75.0205 1 -13.3350 75.2075 TC 72 7 224
1968096S10079 1968 25 SI MM NOREEN 1968-04-07 18:00:00 TS -13.6800 74.8400 reunion main 1951 1922 O____O___OO_O_ jtwc_sh SH331968 -13.8000 74.8000 -1 -13.5000 74.9000 99 9.90000 -13.8000 74.8000 TC 25 -13.8000 74.8000 1 -13.5000 74.9000 TC 75 7 225
1968096S10079 1968 25 SI MM NOREEN 1968-04-07 21:00:00 TS -13.9213 74.5875 main 1922 1893 P____P___PP_P_ SH331968 -14.0575 74.5999 -1 -13.7075 74.5851 99 -14.0575 74.5999 TC 25 -14.0766 74.5676 1 -13.7075 74.5851 TC 75 7 226
1968096S10079 1968 25 SI MM NOREEN 1968-04-08 00:00:00 TS -14.1475 74.3480 reunion main 1883 1864 O____O___OP_O_ jtwc_sh SH331968 -14.3000 74.4000 -1 -13.9000 74.3000 99 9.90000 -14.3000 74.4000 TC 25 -14.3376 74.3402 1 -13.9000 74.3000 TC 75 6 225
1968096S10079 1968 25 SI MM NOREEN 1968-04-08 03:00:00 TS -14.3509 74.1455 main 1850 1836 P____P___PP_P_ SH331968 -14.5575 74.1775 -1 -14.0298 74.1149 99 -14.5575 74.1775 TC 30 -14.5798 74.1427 1 -14.0298 74.1149 TC 75 5 225
1968096S10079 1968 25 SI MM NOREEN 1968-04-08 06:00:00 TS -14.5200 73.9600 reunion main 1836 1812 O____O___OO_O_ jtwc_sh SH331968 -14.8000 74.0000 -1 -14.1000 73.9000 4 9.90000 -14.8000 74.0000 TC 35 -14.8000 74.0000 2 -14.1000 73.9000 TC 75 5 235
1968096S10079 1968 25 SI MM NOREEN 1968-04-08 09:00:00 TS -14.6176 73.7473 main 1802 1787 P____P___PP_P_ SH331968 -15.0150 73.9125 -1 -14.0327 73.4847 4 -15.0150 73.9125 TC 35 -14.9924 73.9422 2 -14.0327 73.4847 TC 77 4 237
1968096S10079 1968 25 SI MM NOREEN 1968-04-08 12:00:00 TS -14.7530 73.5879 reunion main 1783 1775 O____O___OP_O_ jtwc_sh SH331968 -15.2000 73.9000 -1 -14.1000 73.1000 99 9.90000 -15.2000 73.9000 TC 35 -15.1649 73.9396 2 -14.1000 73.1000 TC 80 5 203
1968096S10079 1968 25 SI MM NOREEN 1968-04-08 15:00:00 TS -15.0449 73.5614 main 1775 1759 P____P___PP_P_ SH331968 -15.3575 73.9425 -1 -14.5898 72.9773 99 -15.3575 73.9425 TC 35 -15.3299 73.9673 2 -14.5898 72.9773 TC 80 6 0
1968096S10079 1968 25 SI MM NOREEN 1968-04-08 18:00:00 TS -15.3800 73.5600 reunion main 1759 1741 O____O___OO_O_ jtwc_sh SH331968 -15.5000 74.0000 -1 -15.2000 72.9000 99 9.90000 -15.5000 74.0000 TC 35 -15.5000 74.0000 2 -15.2000 72.9000 TC 80 6 189
1968096S10079 1968 25 SI MM NOREEN 1968-04-08 21:00:00 TS -15.6357 73.4633 main 1741 1719 P____P___PP_P_ SH331968 -15.6350 74.0075 -1 -15.6301 72.6427 99 -15.6350 74.0075 TC 35 -15.6481 74.0160 2 -15.6301 72.6427 TC 77 5 200
1968096S10079 1968 25 SI MM NOREEN 1968-04-09 00:00:00 TS -15.8820 73.3659 reunion main 1719 1702 O____O___OP_O_ jtwc_sh SH331968 -15.8000 74.0000 -1 -16.0000 72.4000 99 9.90000 -15.8000 74.0000 TC 35 -15.8100 74.0296 2 -16.0000 72.4000 TC 75 5 194
1968096S10079 1968 25 SI MM NOREEN 1968-04-09 03:00:00 TS -16.1454 73.3336 main 1702 1692 P____P___PP_P_ SH331968 -16.0050 74.0075 -1 -16.3499 72.3123 99 -16.0050 74.0075 TC 35 -16.0169 74.0284 2 -16.3499 72.3123 TC 72 6 183
1968096S10079 1968 25 SI MM NOREEN 1968-04-09 06:00:00 TS -16.4600 73.3200 reunion main 1689 1679 O____O___OO_O_ jtwc_sh SH331968 -16.3000 74.0000 -1 -16.7000 72.3000 4 9.90000 -16.3000 74.0000 TC 35 -16.3000 74.0000 2 -16.7000 72.3000 TC 70 7 184
1968096S10079 1968 25 SI MM NOREEN 1968-04-09 09:00:00 TS -16.8634 73.2784 main 1676 1654 P____P___PP_P_ SH331968 -16.7125 73.9724 -1 -17.0999 72.2552 4 -16.7125 73.9724 TC 35 -16.6919 73.9369 2 -17.0999 72.2552 TC 70 9 185
1968096S10079 1968 25 SI MM NOREEN 1968-04-09 12:00:00 TS -17.3120 73.2490 reunion main 1654 1652 O____O___OP_O_ jtwc_sh SH331968 -17.2000 73.9000 -1 -17.5000 72.3000 99 9.90000 -17.2000 73.9000 TC 35 -17.1601 73.8450 2 -17.5000 72.3000 TC 70 9 181
1968096S10079 1968 25 SI MM NOREEN 1968-04-09 15:00:00 TS -17.7487 73.2660 main 1654 1643 P____P___PP_P_ SH331968 -17.6925 73.7725 -1 -17.8426 72.5274 99 -17.6925 73.7725 TC 35 -17.6732 73.7306 2 -17.8426 72.5274 TC 70 9 177
1968096S10079 1968 25 SI MM NOREEN 1968-04-09 18:00:00 TS -18.2000 73.2800 reunion main 1643 1623 O____O___OO_O_ jtwc_sh SH331968 -18.2000 73.6000 -1 -18.2000 72.8000 99 9.90000 -18.2000 73.6000 TC 35 -18.2000 73.6000 2 -18.2000 72.8000 TC 70 9 184
1968096S10079 1968 25 SI MM NOREEN 1968-04-09 21:00:00 TS -18.6790 73.2033 main 1623 1606 P____P___PP_P_ SH331968 -18.7000 73.3926 -1 -18.6348 72.9354 99 -18.7000 73.3926 TC 35 -18.7251 73.3607 2 -18.6348 72.9354 TC 67 10 188
1968096S10079 1968 25 SI MM NOREEN 1968-04-10 00:00:00 TS -19.1704 73.1446 reunion main 1605 1601 O____O___OP_O_ jtwc_sh SH331968 -19.2000 73.2000 -1 -19.1000 73.1000 99 9.90000 -19.2000 73.2000 TC 35 -19.2520 73.1230 2 -19.1000 73.1000 TC 65 10 182
1968096S10079 1968 25 SI MM NOREEN 1968-04-10 03:00:00 TS -19.6566 73.1728 main 1609 1608 P____P___PP_P_ SH331968 -19.7224 73.0104 -1 -19.5427 73.4349 99 -19.7224 73.0104 TC 35 -19.7528 72.9735 2 -19.5427 73.4349 TC 65 10 170
1968096S10079 1968 25 SI MM NOREEN 1968-04-10 06:00:00 TS -20.1200 73.3200 reunion main 1616 1616 O____O___OO_O_ jtwc_sh SH331968 -20.2000 73.0000 -1 -20.0000 73.8000 4 9.90000 -20.2000 73.0000 TC 35 -20.2000 73.0000 2 -20.0000 73.8000 TC 65 10 156
1968096S10079 1968 25 SI MM NOREEN 1968-04-10 09:00:00 TS -20.5459 73.5980 main 1646 1645 P____P___PP_P_ SH331968 -20.5874 73.2947 -1 -20.4923 74.0504 4 -20.5874 73.2947 TC 35 -20.5701 73.2996 2 -20.4923 74.0504 TC 62 10 142
1968096S10079 1968 25 SI MM NOREEN 1968-04-10 12:00:00 TS -20.9367 73.9962 reunion main 1686 1686 O____O___OP_O_ jtwc_sh SH331968 -20.9000 73.8000 -1 -21.0000 74.3000 99 9.90000 -20.9000 73.8000 TC 35 -20.8833 73.7810 2 -21.0000 74.3000 TC 60 11 133
1968096S10079 1968 25 SI MM NOREEN 1968-04-10 15:00:00 TS -21.3060 74.4824 main 1738 1738 P____P___PP_P_ SH331968 -21.1651 74.3702 -1 -21.5226 74.6498 99 -21.1651 74.3702 TC 35 -21.1546 74.3720 2 -21.5226 74.6498 TC 60 12 127
1968096S10079 1968 25 SI MM NOREEN 1968-04-10 18:00:00 TS -21.6400 75.0000 reunion main 1790 1790 O____O___OO_O_ jtwc_sh SH331968 -21.4000 75.0000 -1 -22.0000 75.0000 99 9.90000 -21.4000 75.0000 TC 35 -21.4000 75.0000 2 -22.0000 75.0000 TC 60 11 125
1968096S10079 1968 25 SI MM NOREEN 1968-04-10 21:00:00 TS -21.9453 75.4582 main 1843 1843 P____P___PP_P_ SH331968 -21.6574 75.6076 -1 -22.3723 75.2430 99 -21.6574 75.6076 TC 35 -21.6674 75.5898 2 -22.3723 75.2430 TC 57 10 124
1968096S10079 1968 25 SI MM NOREEN 1968-04-11 00:00:00 TS -22.2222 75.9189 reunion main 1886 1886 O____O___OP_O_ jtwc_sh SH331968 -21.9000 76.2000 -1 -22.7000 75.5000 99 9.90000 -21.9000 76.2000 TC 35 -21.9108 76.1946 2 -22.7000 75.5000 TC 55 10 122
1968096S10079 1968 25 SI MM NOREEN 1968-04-11 03:00:00 TS -22.4877 76.4096 main 1939 1939 P____P___PP_P_ SH331968 -22.1225 76.7875 -1 -23.0348 75.8480 99 -22.1225 76.7875 TC 35 -22.1237 76.7772 2 -23.0348 75.8480 TC 52 10 120
1968096S10079 1968 25 SI MM NOREEN 1968-04-11 06:00:00 TS -22.7400 76.9000 reunion main 1992 1992 O____O___OO_O_ jtwc_sh SH331968 -22.3000 77.3000 -1 -23.4000 76.3000 3 9.90000 -22.3000 77.3000 TC 35 -22.3000 77.3000 2 -23.4000 76.3000 TC 50 10 120
1968096S10079 1968 25 SI MM NOREEN 1968-04-11 09:00:00 TS -22.9982 77.3788 main 2045 2045 P____P___PP_P_ SH331968 -22.4147 77.6803 -1 -23.8655 76.9067 3 -22.4147 77.6803 TC 35 -22.4308 77.7198 2 -23.8655 76.9067 TC 50 10 120
1968096S10079 1968 25 SI MM NOREEN 1968-04-11 12:00:00 TS -23.2257 77.8153 reunion main 2088 2088 O____O___OP_O_ jtwc_sh SH331968 -22.5000 78.0000 -1 -24.3000 77.5000 99 9.90000 -22.5000 78.0000 TC 35 -22.5287 78.0763 2 -24.3000 77.5000 TC 50 9 119
1968096S10079 1968 25 SI MM NOREEN 1968-04-11 15:00:00 TS -23.4094 78.1951 main 2131 2131 P____P___PP_P_ SH331968 -22.5999 78.3500 -1 -24.6173 77.9403 99 -22.5999 78.3500 TC 35 -22.6123 78.3946 2 -24.6173 77.9403 TC 47 7 117
1968096S10079 1968 25 SI MM NOREEN 1968-04-11 18:00:00 TS -23.5400 78.5000 reunion main 2162 2162 O____O___OO_O_ jtwc_sh SH331968 -22.7000 78.7000 -1 -24.8000 78.2000 99 9.90000 -22.7000 78.7000 TC 35 -22.7000 78.7000 2 -24.8000 78.2000 TC 45 5 111
1968096S10079 1968 25 SI MM NOREEN 1968-04-11 21:00:00 TS -23.5861 78.7030 main 2184 2184 P____P___PP_P_ SH331968 -22.7925 79.0576 -1 -24.7697 78.1931 99 -22.7925 79.0576 TC 35 -22.8060 79.0133 2 -24.7697 78.1931 TC 45 4 131
1968096S10079 1968 25 SI MM NOREEN 1968-04-12 00:00:00 TS -23.7991 78.8241 reunion main 2196 2196 O____O___OP_O_ jtwc_sh SH331968 -22.9000 79.4000 -1 -24.8000 78.2000 99 9.90000 -22.9000 79.4000 TC 35 -22.9285 79.3364 2 -24.8000 78.2000 TC 45 8 157
1968096S10079 1968 25 SI MM NOREEN 1968-04-12 03:00:00 TS -24.3405 79.0427 main 2223 2223 P____P___PP_P_ SH331968 -23.0401 79.7098 -1 -25.3103 78.5532 99 -23.0401 79.7098 TC 35 -23.0618 79.6664 2 -25.3103 78.5532 TC 42 13 161
1968096S10079 1968 25 SI MM NOREEN 1968-04-12 06:00:00 MX -25.0182 79.2727 reunion main 2264 2264 O____O___OO_O_ jtwc_sh SH331968 -23.2000 80.0000 -1 -25.7000 79.0000 5 9.90000 -23.2000 80.0000 TC 35 -23.2000 80.0000 2 -25.7000 79.0000 EX 40 11 167
1968096S10079 1968 25 SI MM NOREEN 1968-04-12 09:00:00 ET -25.3973 79.3160 main 2271 2271 _____P______P_ SH331968 -1 -25.3973 79.3160 5 TC 2 -25.3973 79.3160 EX 40 3 68
1968096S10079 1968 25 SI MM NOREEN 1968-04-12 12:00:00 ET -24.9000 79.6000 reunion main 2292 2292 _____O______O_ -1 -24.9000 79.6000 99 9.90000 2 -24.9000 79.6000 EX 40 9 37
1968096S10079 1968 25 SI MM NOREEN 1968-04-12 15:00:00 ET -24.6775 79.9072 main 2319 2319 _____P______P_ -1 -24.6775 79.9072 99 2 -24.6775 79.9072 EX 40 7 54
1968096S10079 1968 25 SI MM NOREEN 1968-04-12 18:00:00 ET -24.5000 80.2000 main 2346 2346 _____O______O_ -1 -24.5000 80.2000 99 9.90000 -24.5000 80.2000 EX 40 7 51
1968096S10079 1968 25 SI MM NOREEN 1968-04-12 21:00:00 ET -24.2500 80.4801 main 2374 2372 _____P______P_ -1 -24.2500 80.4801 99 -24.2500 80.4801 EX 37 7 42
1968096S10079 1968 25 SI MM NOREEN 1968-04-13 00:00:00 ET -24.0000 80.7000 main 2390 2389 _____O______O_ -1 -24.0000 80.7000 99 9.90000 -24.0000 80.7000 EX 35 6 35
1968096S10079 1968 25 SI MM NOREEN 1968-04-13 03:00:00 ET -23.7924 80.8299 main 2398 2398 _____P______P_ -1 -23.7924 80.8299 99 -23.7924 80.8299 EX 35 4 24
1968096S10079 1968 25 SI MM NOREEN 1968-04-13 06:00:00 MX -23.6000 80.9000 main 2407 2406 _____O______O_ -1 -23.6000 80.9000 6 9.90000 -23.6000 80.9000 EX 35 4 17
1968096S10079 1968 25 SI MM NOREEN 1968-04-13 09:00:00 MX -23.4000 80.9650 main 2415 2414 _____P______P_ -1 -23.4000 80.9650 6 -23.4000 80.9650 EX 32 4 12
1968096S10079 1968 25 SI MM NOREEN 1968-04-13 12:00:00 ET -23.2000 81.0000 main 2414 2413 _____O______O_ -1 -23.2000 81.0000 99 9.90000 -23.2000 81.0000 EX 30 4 4
1968096S10079 1968 25 SI MM NOREEN 1968-04-13 15:00:00 ET -23.0075 81.0075 main 2413 2412 _____P______P_ -1 -23.0075 81.0075 99 -23.0075 81.0075 EX 30 4 0
1968096S10079 1968 25 SI MM NOREEN 1968-04-13 18:00:00 ET -22.8000 81.0000 main 2412 2411 _____O______O_ -1 -22.8000 81.0000 99 9.90000 -22.8000 81.0000 EX 30 5 357
1968096S10079 1968 25 SI MM NOREEN 1968-04-13 21:00:00 ET -22.5500 80.9925 main 2411 2410 _____P______P_ -1 -22.5500 80.9925 99 -22.5500 80.9925 EX 27 5 2
1968096S10079 1968 25 SI MM NOREEN 1968-04-14 00:00:00 ET -22.3000 81.0000 main 2410 2410 _____O______O_ -1 -22.3000 81.0000 99 9.90000 -22.3000 81.0000 EX 25 4 7
1968096S10079 1968 25 SI MM NOREEN 1968-04-14 03:00:00 ET -22.1075 81.0576 main 2421 2420 _____P______P_ -1 -22.1075 81.0576 99 -22.1075 81.0576 EX 25 4 12
1968096S10079 1968 25 SI MM NOREEN 1968-04-14 06:00:00 MX -21.9000 81.1000 main 2420 2420 _____O______O_ -1 -21.9000 81.1000 6 9.90000 -21.9000 81.1000 EX 25 5 0
1968096S10079 1968 25 SI MM NOREEN 1968-04-14 09:00:00 MX -21.5925 81.0649 main 2421 2411 _____P______P_ -1 -21.5925 81.0649 6 -21.5925 81.0649 EX 22 6 351
1968096S10079 1968 25 SI MM NOREEN 1968-04-14 12:00:00 ET -21.3000 81.0000 main 2411 2411 _____O______O_ -1 -21.3000 81.0000 99 9.90000 -21.3000 81.0000 EX 20 5 351
1968096S10079 1968 25 SI MM NOREEN 1968-04-14 15:00:00 ET -21.1424 80.9802 main 2412 2401 _____P______P_ -1 -21.1424 80.9802 99 -21.1424 80.9802 EX 20 3 343
1968096S10079 1968 25 SI MM NOREEN 1968-04-14 18:00:00 ET -21.0000 80.9000 main 2402 2382 _____O______O_ -1 -21.0000 80.9000 99 9.90000 -21.0000 80.9000 EX 20 5 323
1968096S10079 1968 25 SI MM NOREEN 1968-04-14 21:00:00 ET -20.7651 80.6724 main 2382 2353 _____P______P_ -1 -20.7651 80.6724 99 -20.7651 80.6724 EX 20 7 317
1968096S10079 1968 25 SI MM NOREEN 1968-04-15 00:00:00 ET -20.5000 80.4000 main 2353 2333 _____O______O_ -1 -20.5000 80.4000 99 9.90000 -20.5000 80.4000 EX 20 7 318
1968096S10079 1968 25 SI MM NOREEN 1968-04-15 03:00:00 ET -20.2450 80.1800 main 2334 2314 _____P______P_ -1 -20.2450 80.1800 99 -20.2450 80.1800 EX 20 6 323
1968096S10079 1968 25 SI MM NOREEN 1968-04-15 06:00:00 MX -20.0000 80.0000 reunion main 2315 _____O______O_ -1 -20.0000 80.0000 6 9.90000 -20.0000 80.0000 EX 20 6 326

About IBTrACS Database

This database is a web-friendly format of International Best Track Archive for Climate Stewardship (IBTrACS), a global best track data archive curated by NOAA dating back to 1842.

Updated: 2021-10-25